sensor_id;sensor_type;location;lat;lon;timestamp;temperature;humidity
17827;DHT22;9038;48.208;16.308;2022-10-16T00:00:24;15.00;84.30
17827;DHT22;9038;48.208;16.308;2022-10-16T00:02:26;15.00;84.30
17827;DHT22;9038;48.208;16.308;2022-10-16T00:04:28;15.00;84.00
17827;DHT22;9038;48.208;16.308;2022-10-16T00:06:31;14.90;83.80
17827;DHT22;9038;48.208;16.308;2022-10-16T00:08:34;14.90;83.20
17827;DHT22;9038;48.208;16.308;2022-10-16T00:10:36;14.90;82.90
17827;DHT22;9038;48.208;16.308;2022-10-16T00:12:38;14.80;83.30
17827;DHT22;9038;48.208;16.308;2022-10-16T00:14:40;14.80;84.10
17827;DHT22;9038;48.208;16.308;2022-10-16T00:16:45;14.80;84.40
17827;DHT22;9038;48.208;16.308;2022-10-16T00:18:47;14.80;84.50
17827;DHT22;9038;48.208;16.308;2022-10-16T00:20:49;14.80;84.80
17827;DHT22;9038;48.208;16.308;2022-10-16T00:22:51;14.80;84.90
17827;DHT22;9038;48.208;16.308;2022-10-16T00:24:53;14.80;85.00
17827;DHT22;9038;48.208;16.308;2022-10-16T00:26:55;14.80;84.90
17827;DHT22;9038;48.208;16.308;2022-10-16T00:28:57;14.80;84.90
17827;DHT22;9038;48.208;16.308;2022-10-16T00:31:02;14.80;85.00
17827;DHT22;9038;48.208;16.308;2022-10-16T00:33:05;14.70;85.00
17827;DHT22;9038;48.208;16.308;2022-10-16T00:35:07;14.80;85.00
17827;DHT22;9038;48.208;16.308;2022-10-16T00:37:09;14.80;85.10
17827;DHT22;9038;48.208;16.308;2022-10-16T00:39:11;14.80;84.90
17827;DHT22;9038;48.208;16.308;2022-10-16T00:41:16;14.90;84.90
17827;DHT22;9038;48.208;16.308;2022-10-16T00:43:35;14.90;84.60
17827;DHT22;9038;48.208;16.308;2022-10-16T00:45:37;15.00;84.50
17827;DHT22;9038;48.208;16.308;2022-10-16T00:47:42;15.00;84.30
17827;DHT22;9038;48.208;16.308;2022-10-16T00:49:47;15.00;84.30
17827;DHT22;9038;48.208;16.308;2022-10-16T00:51:51;15.10;84.30
17827;DHT22;9038;48.208;16.308;2022-10-16T00:53:54;15.10;84.10
17827;DHT22;9038;48.208;16.308;2022-10-16T00:55:56;15.10;84.00
17827;DHT22;9038;48.208;16.308;2022-10-16T00:57:58;15.10;84.00
17827;DHT22;9038;48.208;16.308;2022-10-16T01:00:01;15.10;84.00
17827;DHT22;9038;48.208;16.308;2022-10-16T01:02:05;15.10;84.00
17827;DHT22;9038;48.208;16.308;2022-10-16T01:04:07;15.10;84.00
17827;DHT22;9038;48.208;16.308;2022-10-16T01:06:22;15.10;83.90
17827;DHT22;9038;48.208;16.308;2022-10-16T01:08:31;15.10;84.00
17827;DHT22;9038;48.208;16.308;2022-10-16T01:10:39;15.10;84.00
17827;DHT22;9038;48.208;16.308;2022-10-16T01:12:45;15.00;83.90
17827;DHT22;9038;48.208;16.308;2022-10-16T01:14:54;15.00;83.90
17827;DHT22;9038;48.208;16.308;2022-10-16T01:17:01;15.00;83.90
17827;DHT22;9038;48.208;16.308;2022-10-16T01:19:09;15.00;83.90
17827;DHT22;9038;48.208;16.308;2022-10-16T01:21:19;15.00;84.40
17827;DHT22;9038;48.208;16.308;2022-10-16T01:23:36;15.00;83.50
17827;DHT22;9038;48.208;16.308;2022-10-16T01:26:06;15.00;83.50
17827;DHT22;9038;48.208;16.308;2022-10-16T01:28:15;14.90;83.60
17827;DHT22;9038;48.208;16.308;2022-10-16T01:30:21;14.90;83.60
17827;DHT22;9038;48.208;16.308;2022-10-16T01:32:30;14.90;83.70
17827;DHT22;9038;48.208;16.308;2022-10-16T01:34:37;14.90;83.80
17827;DHT22;9038;48.208;16.308;2022-10-16T01:36:42;14.80;83.70
17827;DHT22;9038;48.208;16.308;2022-10-16T01:38:49;14.80;83.70
17827;DHT22;9038;48.208;16.308;2022-10-16T01:40:54;14.70;84.20
17827;DHT22;9038;48.208;16.308;2022-10-16T01:43:01;14.70;84.40
17827;DHT22;9038;48.208;16.308;2022-10-16T01:45:07;14.70;84.30
17827;DHT22;9038;48.208;16.308;2022-10-16T01:47:13;14.70;84.20
17827;DHT22;9038;48.208;16.308;2022-10-16T01:49:16;14.60;83.80
17827;DHT22;9038;48.208;16.308;2022-10-16T01:51:19;14.60;83.90
17827;DHT22;9038;48.208;16.308;2022-10-16T01:53:22;14.60;84.00
17827;DHT22;9038;48.208;16.308;2022-10-16T01:55:29;14.60;84.00
17827;DHT22;9038;48.208;16.308;2022-10-16T01:57:35;14.60;84.00
17827;DHT22;9038;48.208;16.308;2022-10-16T01:59:42;14.60;84.00
17827;DHT22;9038;48.208;16.308;2022-10-16T02:01:50;14.60;83.60
17827;DHT22;9038;48.208;16.308;2022-10-16T02:03:55;14.60;83.40
17827;DHT22;9038;48.208;16.308;2022-10-16T02:05:59;14.60;83.40
17827;DHT22;9038;48.208;16.308;2022-10-16T02:08:02;14.60;83.40
17827;DHT22;9038;48.208;16.308;2022-10-16T02:10:05;14.60;83.40
17827;DHT22;9038;48.208;16.308;2022-10-16T02:12:12;14.60;83.30
17827;DHT22;9038;48.208;16.308;2022-10-16T02:14:15;14.60;83.00
17827;DHT22;9038;48.208;16.308;2022-10-16T02:16:17;14.70;83.20
17827;DHT22;9038;48.208;16.308;2022-10-16T02:18:21;14.70;83.20
17827;DHT22;9038;48.208;16.308;2022-10-16T02:20:27;14.80;83.00
17827;DHT22;9038;48.208;16.308;2022-10-16T02:22:34;14.80;82.80
17827;DHT22;9038;48.208;16.308;2022-10-16T02:24:39;14.80;82.70
17827;DHT22;9038;48.208;16.308;2022-10-16T02:26:48;14.80;83.50
17827;DHT22;9038;48.208;16.308;2022-10-16T02:28:54;14.80;82.80
17827;DHT22;9038;48.208;16.308;2022-10-16T02:30:59;14.80;82.70
17827;DHT22;9038;48.208;16.308;2022-10-16T02:33:06;14.70;82.70
17827;DHT22;9038;48.208;16.308;2022-10-16T02:35:10;14.70;82.80
17827;DHT22;9038;48.208;16.308;2022-10-16T02:37:13;14.60;82.80
17827;DHT22;9038;48.208;16.308;2022-10-16T02:39:15;14.60;83.00
17827;DHT22;9038;48.208;16.308;2022-10-16T02:41:19;14.60;83.10
17827;DHT22;9038;48.208;16.308;2022-10-16T02:43:22;14.70;83.30
17827;DHT22;9038;48.208;16.308;2022-10-16T02:45:24;14.70;83.30
17827;DHT22;9038;48.208;16.308;2022-10-16T02:47:26;14.70;83.00
17827;DHT22;9038;48.208;16.308;2022-10-16T02:49:28;14.70;83.00
17827;DHT22;9038;48.208;16.308;2022-10-16T02:51:31;14.70;82.90
17827;DHT22;9038;48.208;16.308;2022-10-16T02:53:33;14.70;83.00
17827;DHT22;9038;48.208;16.308;2022-10-16T02:55:35;14.60;82.80
17827;DHT22;9038;48.208;16.308;2022-10-16T02:57:37;14.60;83.00
17827;DHT22;9038;48.208;16.308;2022-10-16T02:59:40;14.60;83.10
17827;DHT22;9038;48.208;16.308;2022-10-16T03:01:42;14.60;83.20
17827;DHT22;9038;48.208;16.308;2022-10-16T03:03:44;14.60;83.40
17827;DHT22;9038;48.208;16.308;2022-10-16T03:05:46;14.60;83.20
17827;DHT22;9038;48.208;16.308;2022-10-16T03:07:49;14.60;83.00
17827;DHT22;9038;48.208;16.308;2022-10-16T03:09:53;14.60;83.20
17827;DHT22;9038;48.208;16.308;2022-10-16T03:11:55;14.50;83.20
17827;DHT22;9038;48.208;16.308;2022-10-16T03:13:56;14.40;83.20
17827;DHT22;9038;48.208;16.308;2022-10-16T03:15:58;14.40;83.20
17827;DHT22;9038;48.208;16.308;2022-10-16T03:18:01;14.40;83.40
17827;DHT22;9038;48.208;16.308;2022-10-16T03:20:03;14.40;83.40
17827;DHT22;9038;48.208;16.308;2022-10-16T03:22:05;14.40;83.30
17827;DHT22;9038;48.208;16.308;2022-10-16T03:24:08;14.40;83.40
17827;DHT22;9038;48.208;16.308;2022-10-16T03:26:10;14.30;83.50
17827;DHT22;9038;48.208;16.308;2022-10-16T03:28:12;14.30;83.90
17827;DHT22;9038;48.208;16.308;2022-10-16T03:30:14;14.30;83.80
17827;DHT22;9038;48.208;16.308;2022-10-16T03:32:16;14.30;83.90
17827;DHT22;9038;48.208;16.308;2022-10-16T03:34:18;14.30;83.80
17827;DHT22;9038;48.208;16.308;2022-10-16T03:36:20;14.30;83.70
17827;DHT22;9038;48.208;16.308;2022-10-16T03:38:22;14.30;83.60
17827;DHT22;9038;48.208;16.308;2022-10-16T03:40:26;14.30;83.50
17827;DHT22;9038;48.208;16.308;2022-10-16T03:42:28;14.30;83.50
17827;DHT22;9038;48.208;16.308;2022-10-16T03:44:30;14.30;83.60
17827;DHT22;9038;48.208;16.308;2022-10-16T03:46:31;14.30;83.50
17827;DHT22;9038;48.208;16.308;2022-10-16T03:48:33;14.30;83.40
17827;DHT22;9038;48.208;16.308;2022-10-16T03:50:35;14.30;83.50
17827;DHT22;9038;48.208;16.308;2022-10-16T03:52:37;14.20;83.60
17827;DHT22;9038;48.208;16.308;2022-10-16T03:54:39;14.20;83.60
17827;DHT22;9038;48.208;16.308;2022-10-16T03:56:42;14.20;83.70
17827;DHT22;9038;48.208;16.308;2022-10-16T03:58:44;14.30;83.90
17827;DHT22;9038;48.208;16.308;2022-10-16T04:00:46;14.30;83.90
17827;DHT22;9038;48.208;16.308;2022-10-16T04:02:49;14.30;83.60
17827;DHT22;9038;48.208;16.308;2022-10-16T04:04:51;14.30;83.60
17827;DHT22;9038;48.208;16.308;2022-10-16T04:06:53;14.30;83.50
17827;DHT22;9038;48.208;16.308;2022-10-16T04:08:55;14.30;83.20
17827;DHT22;9038;48.208;16.308;2022-10-16T04:10:56;14.30;83.10
17827;DHT22;9038;48.208;16.308;2022-10-16T04:13:00;14.30;83.10
17827;DHT22;9038;48.208;16.308;2022-10-16T04:15:02;14.30;83.20
17827;DHT22;9038;48.208;16.308;2022-10-16T04:17:05;14.30;83.30
17827;DHT22;9038;48.208;16.308;2022-10-16T04:19:08;14.30;83.30
17827;DHT22;9038;48.208;16.308;2022-10-16T04:21:10;14.30;83.10
17827;DHT22;9038;48.208;16.308;2022-10-16T04:23:12;14.20;83.10
17827;DHT22;9038;48.208;16.308;2022-10-16T04:25:14;14.30;83.10
17827;DHT22;9038;48.208;16.308;2022-10-16T04:27:16;14.30;83.10
17827;DHT22;9038;48.208;16.308;2022-10-16T04:29:19;14.20;83.00
17827;DHT22;9038;48.208;16.308;2022-10-16T04:31:21;14.20;83.20
17827;DHT22;9038;48.208;16.308;2022-10-16T04:33:23;14.20;83.50
17827;DHT22;9038;48.208;16.308;2022-10-16T04:35:25;14.20;83.10
17827;DHT22;9038;48.208;16.308;2022-10-16T04:37:27;14.20;83.10
17827;DHT22;9038;48.208;16.308;2022-10-16T04:39:29;14.20;83.00
17827;DHT22;9038;48.208;16.308;2022-10-16T04:41:31;14.20;83.00
17827;DHT22;9038;48.208;16.308;2022-10-16T04:43:33;14.20;83.10
17827;DHT22;9038;48.208;16.308;2022-10-16T04:45:36;14.20;83.00
17827;DHT22;9038;48.208;16.308;2022-10-16T04:47:38;14.20;83.00
17827;DHT22;9038;48.208;16.308;2022-10-16T04:49:40;14.20;83.00
17827;DHT22;9038;48.208;16.308;2022-10-16T04:51:42;14.20;83.10
17827;DHT22;9038;48.208;16.308;2022-10-16T04:53:44;14.30;83.40
17827;DHT22;9038;48.208;16.308;2022-10-16T04:55:46;14.30;83.10
17827;DHT22;9038;48.208;16.308;2022-10-16T04:57:48;14.30;83.10
17827;DHT22;9038;48.208;16.308;2022-10-16T04:59:50;14.30;82.90
17827;DHT22;9038;48.208;16.308;2022-10-16T05:01:53;14.20;82.90
17827;DHT22;9038;48.208;16.308;2022-10-16T05:03:55;14.20;82.90
17827;DHT22;9038;48.208;16.308;2022-10-16T05:05:57;14.30;83.10
17827;DHT22;9038;48.208;16.308;2022-10-16T05:07:59;14.30;83.10
17827;DHT22;9038;48.208;16.308;2022-10-16T05:10:00;14.30;83.10
17827;DHT22;9038;48.208;16.308;2022-10-16T05:12:03;14.30;83.10
17827;DHT22;9038;48.208;16.308;2022-10-16T05:14:05;14.30;83.10
17827;DHT22;9038;48.208;16.308;2022-10-16T05:16:06;14.30;82.90
17827;DHT22;9038;48.208;16.308;2022-10-16T05:18:10;14.30;83.10
17827;DHT22;9038;48.208;16.308;2022-10-16T05:20:12;14.30;83.00
17827;DHT22;9038;48.208;16.308;2022-10-16T05:22:14;14.40;83.10
17827;DHT22;9038;48.208;16.308;2022-10-16T05:24:16;14.40;82.80
17827;DHT22;9038;48.208;16.308;2022-10-16T05:26:18;14.30;82.80
17827;DHT22;9038;48.208;16.308;2022-10-16T05:28:20;14.30;82.60
17827;DHT22;9038;48.208;16.308;2022-10-16T05:30:22;14.40;82.80
17827;DHT22;9038;48.208;16.308;2022-10-16T05:32:24;14.30;82.80
17827;DHT22;9038;48.208;16.308;2022-10-16T05:34:27;14.30;82.80
17827;DHT22;9038;48.208;16.308;2022-10-16T05:36:29;14.30;83.10
17827;DHT22;9038;48.208;16.308;2022-10-16T05:38:31;14.20;83.00
17827;DHT22;9038;48.208;16.308;2022-10-16T05:40:33;14.10;82.60
17827;DHT22;9038;48.208;16.308;2022-10-16T05:42:35;14.00;82.80
17827;DHT22;9038;48.208;16.308;2022-10-16T05:44:37;14.00;83.30
17827;DHT22;9038;48.208;16.308;2022-10-16T05:46:39;13.90;83.10
17827;DHT22;9038;48.208;16.308;2022-10-16T05:48:41;13.90;83.50
17827;DHT22;9038;48.208;16.308;2022-10-16T05:50:45;13.90;83.40
17827;DHT22;9038;48.208;16.308;2022-10-16T05:52:47;13.90;83.70
17827;DHT22;9038;48.208;16.308;2022-10-16T05:54:49;13.90;83.00
17827;DHT22;9038;48.208;16.308;2022-10-16T05:56:51;13.80;83.20
17827;DHT22;9038;48.208;16.308;2022-10-16T05:58:53;13.80;83.30
17827;DHT22;9038;48.208;16.308;2022-10-16T06:00:55;13.80;83.40
17827;DHT22;9038;48.208;16.308;2022-10-16T06:02:57;13.80;83.60
17827;DHT22;9038;48.208;16.308;2022-10-16T06:04:59;13.80;83.20
17827;DHT22;9038;48.208;16.308;2022-10-16T06:07:02;13.80;83.10
17827;DHT22;9038;48.208;16.308;2022-10-16T06:09:04;13.80;83.30
17827;DHT22;9038;48.208;16.308;2022-10-16T06:11:08;13.90;83.30
17827;DHT22;9038;48.208;16.308;2022-10-16T06:13:10;14.00;82.80
17827;DHT22;9038;48.208;16.308;2022-10-16T06:15:13;14.00;82.20
17827;DHT22;9038;48.208;16.308;2022-10-16T06:17:15;14.00;82.40
17827;DHT22;9038;48.208;16.308;2022-10-16T06:19:17;14.10;82.20
17827;DHT22;9038;48.208;16.308;2022-10-16T06:21:20;14.10;81.80
17827;DHT22;9038;48.208;16.308;2022-10-16T06:23:24;14.20;81.20
17827;DHT22;9038;48.208;16.308;2022-10-16T06:25:26;14.20;80.90
17827;DHT22;9038;48.208;16.308;2022-10-16T06:27:28;14.20;80.90
17827;DHT22;9038;48.208;16.308;2022-10-16T06:29:30;14.20;80.90
17827;DHT22;9038;48.208;16.308;2022-10-16T06:31:32;14.20;81.10
17827;DHT22;9038;48.208;16.308;2022-10-16T06:33:35;14.20;81.10
17827;DHT22;9038;48.208;16.308;2022-10-16T06:35:37;14.20;81.10
17827;DHT22;9038;48.208;16.308;2022-10-16T06:37:39;14.30;81.10
17827;DHT22;9038;48.208;16.308;2022-10-16T06:39:42;14.20;81.10
17827;DHT22;9038;48.208;16.308;2022-10-16T06:41:44;14.30;81.50
17827;DHT22;9038;48.208;16.308;2022-10-16T06:43:46;14.30;81.20
17827;DHT22;9038;48.208;16.308;2022-10-16T06:45:51;14.30;81.20
17827;DHT22;9038;48.208;16.308;2022-10-16T06:47:53;14.30;81.80
17827;DHT22;9038;48.208;16.308;2022-10-16T06:49:55;14.40;81.70
17827;DHT22;9038;48.208;16.308;2022-10-16T06:51:57;14.40;81.20
17827;DHT22;9038;48.208;16.308;2022-10-16T06:53:59;14.40;81.00
17827;DHT22;9038;48.208;16.308;2022-10-16T06:56:08;14.30;80.50
17827;DHT22;9038;48.208;16.308;2022-10-16T06:58:10;14.30;81.20
17827;DHT22;9038;48.208;16.308;2022-10-16T07:00:12;14.30;81.20
17827;DHT22;9038;48.208;16.308;2022-10-16T07:02:14;14.30;81.10
17827;DHT22;9038;48.208;16.308;2022-10-16T07:04:16;14.40;81.30
17827;DHT22;9038;48.208;16.308;2022-10-16T07:06:19;14.50;81.40
17827;DHT22;9038;48.208;16.308;2022-10-16T07:08:22;14.50;80.70
17827;DHT22;9038;48.208;16.308;2022-10-16T07:10:24;14.60;80.50
17827;DHT22;9038;48.208;16.308;2022-10-16T07:12:27;14.70;79.70
17827;DHT22;9038;48.208;16.308;2022-10-16T07:14:29;14.70;79.60
17827;DHT22;9038;48.208;16.308;2022-10-16T07:16:32;14.70;79.40
17827;DHT22;9038;48.208;16.308;2022-10-16T07:18:34;14.70;80.00
17827;DHT22;9038;48.208;16.308;2022-10-16T07:20:37;14.80;79.50
17827;DHT22;9038;48.208;16.308;2022-10-16T07:22:39;14.80;79.20
17827;DHT22;9038;48.208;16.308;2022-10-16T07:24:41;14.80;79.00
17827;DHT22;9038;48.208;16.308;2022-10-16T07:26:45;14.90;79.20
17827;DHT22;9038;48.208;16.308;2022-10-16T07:28:49;14.90;79.00
17827;DHT22;9038;48.208;16.308;2022-10-16T07:30:51;15.10;78.60
17827;DHT22;9038;48.208;16.308;2022-10-16T07:32:53;15.10;78.00
17827;DHT22;9038;48.208;16.308;2022-10-16T07:34:55;15.00;77.60
17827;DHT22;9038;48.208;16.308;2022-10-16T07:36:57;15.10;78.00
17827;DHT22;9038;48.208;16.308;2022-10-16T07:38:59;15.10;77.80
17827;DHT22;9038;48.208;16.308;2022-10-16T07:41:02;15.10;77.80
17827;DHT22;9038;48.208;16.308;2022-10-16T07:43:04;14.90;77.80
17827;DHT22;9038;48.208;16.308;2022-10-16T07:45:08;14.80;78.50
17827;DHT22;9038;48.208;16.308;2022-10-16T07:47:10;14.70;78.80
17827;DHT22;9038;48.208;16.308;2022-10-16T07:49:13;14.60;79.40
17827;DHT22;9038;48.208;16.308;2022-10-16T07:51:16;14.50;79.70
17827;DHT22;9038;48.208;16.308;2022-10-16T07:53:18;14.50;80.20
17827;DHT22;9038;48.208;16.308;2022-10-16T07:55:20;14.60;80.50
17827;DHT22;9038;48.208;16.308;2022-10-16T07:57:22;14.70;80.40
17827;DHT22;9038;48.208;16.308;2022-10-16T07:59:24;14.90;80.10
17827;DHT22;9038;48.208;16.308;2022-10-16T08:01:27;15.00;79.10
17827;DHT22;9038;48.208;16.308;2022-10-16T08:03:29;15.10;78.10
17827;DHT22;9038;48.208;16.308;2022-10-16T08:05:32;15.20;78.10
17827;DHT22;9038;48.208;16.308;2022-10-16T08:07:34;15.30;77.60
17827;DHT22;9038;48.208;16.308;2022-10-16T08:09:36;15.40;76.90
17827;DHT22;9038;48.208;16.308;2022-10-16T08:11:38;15.30;76.50
17827;DHT22;9038;48.208;16.308;2022-10-16T08:13:40;15.20;76.90
17827;DHT22;9038;48.208;16.308;2022-10-16T08:15:42;15.20;76.90
17827;DHT22;9038;48.208;16.308;2022-10-16T08:17:53;15.30;77.40
17827;DHT22;9038;48.208;16.308;2022-10-16T08:19:55;15.30;77.20
17827;DHT22;9038;48.208;16.308;2022-10-16T08:21:57;15.40;76.80
17827;DHT22;9038;48.208;16.308;2022-10-16T08:23:59;15.50;77.20
17827;DHT22;9038;48.208;16.308;2022-10-16T08:26:05;15.50;76.50
17827;DHT22;9038;48.208;16.308;2022-10-16T08:28:09;15.60;76.70
17827;DHT22;9038;48.208;16.308;2022-10-16T08:30:11;15.70;76.50
17827;DHT22;9038;48.208;16.308;2022-10-16T08:32:13;15.80;76.90
17827;DHT22;9038;48.208;16.308;2022-10-16T08:34:16;15.90;75.60
17827;DHT22;9038;48.208;16.308;2022-10-16T08:36:18;16.10;76.10
17827;DHT22;9038;48.208;16.308;2022-10-16T08:38:20;16.10;75.40
17827;DHT22;9038;48.208;16.308;2022-10-16T08:40:25;16.20;74.50
17827;DHT22;9038;48.208;16.308;2022-10-16T08:42:40;16.10;74.20
17827;DHT22;9038;48.208;16.308;2022-10-16T08:45:02;16.10;74.50
17827;DHT22;9038;48.208;16.308;2022-10-16T08:47:12;16.20;74.60
17827;DHT22;9038;48.208;16.308;2022-10-16T08:49:16;16.20;74.20
17827;DHT22;9038;48.208;16.308;2022-10-16T08:51:22;16.30;74.30
17827;DHT22;9038;48.208;16.308;2022-10-16T08:53:28;16.30;75.10
17827;DHT22;9038;48.208;16.308;2022-10-16T08:55:37;16.40;73.70
17827;DHT22;9038;48.208;16.308;2022-10-16T08:57:40;16.40;73.50
17827;DHT22;9038;48.208;16.308;2022-10-16T08:59:41;16.50;73.50
17827;DHT22;9038;48.208;16.308;2022-10-16T09:01:46;16.50;73.00
17827;DHT22;9038;48.208;16.308;2022-10-16T09:04:26;16.40;73.30
17827;DHT22;9038;48.208;16.308;2022-10-16T09:06:41;16.40;73.80
17827;DHT22;9038;48.208;16.308;2022-10-16T09:08:55;16.50;74.00
17827;DHT22;9038;48.208;16.308;2022-10-16T09:11:06;16.60;73.10
17827;DHT22;9038;48.208;16.308;2022-10-16T09:13:18;16.50;73.10
17827;DHT22;9038;48.208;16.308;2022-10-16T09:15:28;16.50;73.10
17827;DHT22;9038;48.208;16.308;2022-10-16T09:17:37;16.40;73.40
17827;DHT22;9038;48.208;16.308;2022-10-16T09:19:48;16.40;73.70
17827;DHT22;9038;48.208;16.308;2022-10-16T09:21:52;16.40;73.90
17827;DHT22;9038;48.208;16.308;2022-10-16T09:23:58;16.30;73.70
17827;DHT22;9038;48.208;16.308;2022-10-16T09:26:01;16.30;74.20
17827;DHT22;9038;48.208;16.308;2022-10-16T09:28:04;16.40;74.40
17827;DHT22;9038;48.208;16.308;2022-10-16T09:30:12;16.60;74.50
17827;DHT22;9038;48.208;16.308;2022-10-16T09:32:17;16.80;73.60
17827;DHT22;9038;48.208;16.308;2022-10-16T09:34:25;16.90;73.00
17827;DHT22;9038;48.208;16.308;2022-10-16T09:36:36;17.00;72.20
17827;DHT22;9038;48.208;16.308;2022-10-16T09:38:40;17.10;72.10
17827;DHT22;9038;48.208;16.308;2022-10-16T09:40:42;17.10;71.70
17827;DHT22;9038;48.208;16.308;2022-10-16T09:42:44;17.10;72.10
17827;DHT22;9038;48.208;16.308;2022-10-16T09:44:51;17.20;71.50
17827;DHT22;9038;48.208;16.308;2022-10-16T09:47:02;17.20;71.20
17827;DHT22;9038;48.208;16.308;2022-10-16T09:49:16;17.20;71.20
17827;DHT22;9038;48.208;16.308;2022-10-16T09:51:23;17.20;71.20
17827;DHT22;9038;48.208;16.308;2022-10-16T09:53:39;17.40;72.10
17827;DHT22;9038;48.208;16.308;2022-10-16T09:55:50;17.60;70.60
17827;DHT22;9038;48.208;16.308;2022-10-16T09:57:53;17.80;69.50
17827;DHT22;9038;48.208;16.308;2022-10-16T09:59:57;17.80;69.90
17827;DHT22;9038;48.208;16.308;2022-10-16T10:02:03;17.70;68.60
17827;DHT22;9038;48.208;16.308;2022-10-16T10:04:06;17.50;69.40
17827;DHT22;9038;48.208;16.308;2022-10-16T10:06:18;17.40;69.90
17827;DHT22;9038;48.208;16.308;2022-10-16T10:08:21;17.40;69.80
17827;DHT22;9038;48.208;16.308;2022-10-16T10:10:26;17.20;70.00
17827;DHT22;9038;48.208;16.308;2022-10-16T10:12:29;17.20;70.30
17827;DHT22;9038;48.208;16.308;2022-10-16T10:14:35;17.20;70.50
17827;DHT22;9038;48.208;16.308;2022-10-16T10:16:38;17.20;70.20
17827;DHT22;9038;48.208;16.308;2022-10-16T10:18:40;17.30;70.40
17827;DHT22;9038;48.208;16.308;2022-10-16T10:20:42;17.50;70.40
17827;DHT22;9038;48.208;16.308;2022-10-16T10:22:45;18.10;69.70
17827;DHT22;9038;48.208;16.308;2022-10-16T10:25:07;18.50;67.30
17827;DHT22;9038;48.208;16.308;2022-10-16T10:27:16;18.70;66.20
17827;DHT22;9038;48.208;16.308;2022-10-16T10:29:37;18.70;65.70
17827;DHT22;9038;48.208;16.308;2022-10-16T10:31:47;18.60;65.40
17827;DHT22;9038;48.208;16.308;2022-10-16T10:33:57;18.60;65.80
17827;DHT22;9038;48.208;16.308;2022-10-16T10:36:08;18.40;66.20
17827;DHT22;9038;48.208;16.308;2022-10-16T10:38:25;18.10;66.40
17827;DHT22;9038;48.208;16.308;2022-10-16T10:40:37;18.20;67.30
17827;DHT22;9038;48.208;16.308;2022-10-16T10:42:47;18.30;66.90
17827;DHT22;9038;48.208;16.308;2022-10-16T10:45:03;18.20;67.00
17827;DHT22;9038;48.208;16.308;2022-10-16T10:47:13;18.40;66.80
17827;DHT22;9038;48.208;16.308;2022-10-16T10:49:36;18.30;66.50
17827;DHT22;9038;48.208;16.308;2022-10-16T10:51:49;18.30;66.20
17827;DHT22;9038;48.208;16.308;2022-10-16T10:53:59;18.40;66.20
17827;DHT22;9038;48.208;16.308;2022-10-16T10:56:16;18.50;66.60
17827;DHT22;9038;48.208;16.308;2022-10-16T10:58:39;18.70;66.60
17827;DHT22;9038;48.208;16.308;2022-10-16T11:00:53;18.80;65.40
17827;DHT22;9038;48.208;16.308;2022-10-16T11:03:03;18.80;65.50
17827;DHT22;9038;48.208;16.308;2022-10-16T11:05:31;18.90;64.80
17827;DHT22;9038;48.208;16.308;2022-10-16T11:07:40;18.80;65.10
17827;DHT22;9038;48.208;16.308;2022-10-16T11:09:47;18.90;65.30
17827;DHT22;9038;48.208;16.308;2022-10-16T11:11:52;18.80;65.60
17827;DHT22;9038;48.208;16.308;2022-10-16T11:14:00;18.90;65.40
17827;DHT22;9038;48.208;16.308;2022-10-16T11:16:13;19.00;65.30
17827;DHT22;9038;48.208;16.308;2022-10-16T11:18:19;19.40;65.00
17827;DHT22;9038;48.208;16.308;2022-10-16T11:20:24;19.80;63.50
17827;DHT22;9038;48.208;16.308;2022-10-16T11:22:30;20.00;62.90
17827;DHT22;9038;48.208;16.308;2022-10-16T11:24:40;20.10;62.50
17827;DHT22;9038;48.208;16.308;2022-10-16T11:26:44;19.90;62.50
17827;DHT22;9038;48.208;16.308;2022-10-16T11:28:49;19.80;62.80
17827;DHT22;9038;48.208;16.308;2022-10-16T11:30:57;19.80;63.20
17827;DHT22;9038;48.208;16.308;2022-10-16T11:33:08;19.90;63.10
17827;DHT22;9038;48.208;16.308;2022-10-16T11:35:19;20.50;62.40
17827;DHT22;9038;48.208;16.308;2022-10-16T11:37:27;20.80;61.50
17827;DHT22;9038;48.208;16.308;2022-10-16T11:39:31;21.20;60.70
17827;DHT22;9038;48.208;16.308;2022-10-16T11:41:36;21.60;60.00
17827;DHT22;9038;48.208;16.308;2022-10-16T11:43:43;21.90;58.90
17827;DHT22;9038;48.208;16.308;2022-10-16T11:45:49;21.90;58.00
17827;DHT22;9038;48.208;16.308;2022-10-16T11:48:00;22.00;58.60
17827;DHT22;9038;48.208;16.308;2022-10-16T11:50:12;22.10;58.30
17827;DHT22;9038;48.208;16.308;2022-10-16T11:52:19;22.30;57.90
17827;DHT22;9038;48.208;16.308;2022-10-16T11:54:28;22.60;57.30
17827;DHT22;9038;48.208;16.308;2022-10-16T11:56:38;22.80;57.00
17827;DHT22;9038;48.208;16.308;2022-10-16T11:58:49;22.90;56.60
17827;DHT22;9038;48.208;16.308;2022-10-16T12:00:59;22.90;56.20
17827;DHT22;9038;48.208;16.308;2022-10-16T12:03:12;22.90;56.50
17827;DHT22;9038;48.208;16.308;2022-10-16T12:05:24;22.80;55.90
17827;DHT22;9038;48.208;16.308;2022-10-16T12:07:32;22.60;56.40
17827;DHT22;9038;48.208;16.308;2022-10-16T12:09:38;22.40;56.90
17827;DHT22;9038;48.208;16.308;2022-10-16T12:11:41;22.20;57.30
17827;DHT22;9038;48.208;16.308;2022-10-16T12:13:44;22.00;57.80
17827;DHT22;9038;48.208;16.308;2022-10-16T12:15:48;21.80;58.20
17827;DHT22;9038;48.208;16.308;2022-10-16T12:17:51;21.60;58.80
17827;DHT22;9038;48.208;16.308;2022-10-16T12:20:18;21.50;59.20
17827;DHT22;9038;48.208;16.308;2022-10-16T12:22:21;21.40;59.50
17827;DHT22;9038;48.208;16.308;2022-10-16T12:24:32;21.30;59.80
17827;DHT22;9038;48.208;16.308;2022-10-16T12:26:38;21.40;60.30
17827;DHT22;9038;48.208;16.308;2022-10-16T12:28:42;21.50;60.00
17827;DHT22;9038;48.208;16.308;2022-10-16T12:30:53;21.60;59.60
17827;DHT22;9038;48.208;16.308;2022-10-16T12:32:57;21.50;59.80
17827;DHT22;9038;48.208;16.308;2022-10-16T12:35:02;21.50;60.00
17827;DHT22;9038;48.208;16.308;2022-10-16T12:37:11;21.60;60.10
17827;DHT22;9038;48.208;16.308;2022-10-16T12:39:21;21.80;60.00
17827;DHT22;9038;48.208;16.308;2022-10-16T12:41:26;21.90;59.30
17827;DHT22;9038;48.208;16.308;2022-10-16T12:43:36;21.80;59.30
17827;DHT22;9038;48.208;16.308;2022-10-16T12:45:39;21.90;59.50
17827;DHT22;9038;48.208;16.308;2022-10-16T12:47:49;22.00;59.60
17827;DHT22;9038;48.208;16.308;2022-10-16T12:49:53;22.10;59.20
17827;DHT22;9038;48.208;16.308;2022-10-16T12:51:57;22.10;59.10
17827;DHT22;9038;48.208;16.308;2022-10-16T12:54:00;22.10;59.30
17827;DHT22;9038;48.208;16.308;2022-10-16T12:56:09;22.00;59.40
17827;DHT22;9038;48.208;16.308;2022-10-16T12:58:24;21.90;59.90
17827;DHT22;9038;48.208;16.308;2022-10-16T13:00:35;21.90;60.20
17827;DHT22;9038;48.208;16.308;2022-10-16T13:02:57;22.00;60.10
17827;DHT22;9038;48.208;16.308;2022-10-16T13:05:18;22.00;59.90
17827;DHT22;9038;48.208;16.308;2022-10-16T13:07:37;21.80;60.30
17827;DHT22;9038;48.208;16.308;2022-10-16T13:09:53;21.70;60.90